sensor_id;sensor_type;location;lat;lon;timestamp;pressure;altitude;pressure_sealevel;temperature;humidity
77227;BME280;66234;47.642;19.144;2023-05-21T00:02:32;100473.56;;;16.11;73.52
77227;BME280;66234;47.642;19.144;2023-05-21T00:05:35;100472.63;;;16.17;73.23
77227;BME280;66234;47.642;19.144;2023-05-21T00:08:39;100478.50;;;16.14;73.00
77227;BME280;66234;47.642;19.144;2023-05-21T00:11:41;100479.66;;;16.18;73.07
77227;BME280;66234;47.642;19.144;2023-05-21T00:14:44;100490.31;;;16.13;73.32
77227;BME280;66234;47.642;19.144;2023-05-21T00:17:47;100486.69;;;16.19;72.85
77227;BME280;66234;47.642;19.144;2023-05-21T00:20:50;100483.59;;;16.27;72.19
77227;BME280;66234;47.642;19.144;2023-05-21T00:23:53;100488.44;;;16.25;72.39
77227;BME280;66234;47.642;19.144;2023-05-21T00:26:57;100489.00;;;16.27;71.84
77227;BME280;66234;47.642;19.144;2023-05-21T00:30:01;100485.50;;;16.27;72.21
77227;BME280;66234;47.642;19.144;2023-05-21T00:33:04;100482.69;;;16.22;72.30
77227;BME280;66234;47.642;19.144;2023-05-21T00:36:07;100481.31;;;16.19;72.19
77227;BME280;66234;47.642;19.144;2023-05-21T00:39:11;100479.16;;;16.21;72.31
77227;BME280;66234;47.642;19.144;2023-05-21T00:42:15;100480.00;;;16.22;72.30
77227;BME280;66234;47.642;19.144;2023-05-21T00:45:19;100476.94;;;16.18;72.58
77227;BME280;66234;47.642;19.144;2023-05-21T00:48:22;100473.22;;;16.19;72.06
77227;BME280;66234;47.642;19.144;2023-05-21T00:51:25;100462.41;;;16.19;72.61
77227;BME280;66234;47.642;19.144;2023-05-21T00:54:31;100474.38;;;16.12;73.17
77227;BME280;66234;47.642;19.144;2023-05-21T00:57:35;100482.03;;;16.03;73.31
77227;BME280;66234;47.642;19.144;2023-05-21T01:00:40;100477.69;;;15.91;73.70
77227;BME280;66234;47.642;19.144;2023-05-21T01:03:43;100471.84;;;15.94;73.74
77227;BME280;66234;47.642;19.144;2023-05-21T01:06:46;100476.63;;;15.92;74.21
77227;BME280;66234;47.642;19.144;2023-05-21T01:09:48;100472.41;;;15.84;74.49
77227;BME280;66234;47.642;19.144;2023-05-21T01:12:52;100462.22;;;15.75;74.92
77227;BME280;66234;47.642;19.144;2023-05-21T01:15:56;100469.84;;;15.66;75.84
77227;BME280;66234;47.642;19.144;2023-05-21T01:19:00;100465.03;;;15.57;76.39
77227;BME280;66234;47.642;19.144;2023-05-21T01:22:06;100474.78;;;15.46;77.15
77227;BME280;66234;47.642;19.144;2023-05-21T01:25:10;100463.13;;;15.34;77.20
77227;BME280;66234;47.642;19.144;2023-05-21T01:28:13;100467.34;;;15.30;77.21
77227;BME280;66234;47.642;19.144;2023-05-21T01:31:26;100460.66;;;15.21;77.34
77227;BME280;66234;47.642;19.144;2023-05-21T01:34:40;100456.78;;;15.17;77.54
77227;BME280;66234;47.642;19.144;2023-05-21T01:37:54;100457.03;;;15.16;77.62
77227;BME280;66234;47.642;19.144;2023-05-21T01:41:01;100460.41;;;15.11;78.52
77227;BME280;66234;47.642;19.144;2023-05-21T01:44:06;100463.44;;;15.03;78.83
77227;BME280;66234;47.642;19.144;2023-05-21T01:47:10;100454.38;;;14.98;79.43
77227;BME280;66234;47.642;19.144;2023-05-21T01:50:13;100456.03;;;14.99;79.37
77227;BME280;66234;47.642;19.144;2023-05-21T01:53:16;100453.44;;;14.92;79.31
77227;BME280;66234;47.642;19.144;2023-05-21T01:56:19;100452.28;;;14.88;79.53
77227;BME280;66234;47.642;19.144;2023-05-21T01:59:24;100451.22;;;14.89;79.62
77227;BME280;66234;47.642;19.144;2023-05-21T02:02:27;100452.13;;;14.83;79.85
77227;BME280;66234;47.642;19.144;2023-05-21T02:05:30;100454.13;;;14.88;78.92
77227;BME280;66234;47.642;19.144;2023-05-21T02:08:32;100440.44;;;14.89;78.85
77227;BME280;66234;47.642;19.144;2023-05-21T02:11:35;100443.84;;;14.84;79.73
77227;BME280;66234;47.642;19.144;2023-05-21T02:14:37;100443.91;;;14.78;80.29
77227;BME280;66234;47.642;19.144;2023-05-21T02:17:40;100453.38;;;14.69;80.23
77227;BME280;66234;47.642;19.144;2023-05-21T02:20:46;100448.75;;;14.58;80.74
77227;BME280;66234;47.642;19.144;2023-05-21T02:23:48;100451.16;;;14.48;81.45
77227;BME280;66234;47.642;19.144;2023-05-21T02:26:51;100442.16;;;14.42;81.93
77227;BME280;66234;47.642;19.144;2023-05-21T02:29:54;100443.53;;;14.45;81.94
77227;BME280;66234;47.642;19.144;2023-05-21T02:32:57;100446.56;;;14.37;82.11
77227;BME280;66234;47.642;19.144;2023-05-21T02:36:00;100443.66;;;14.38;81.98
77227;BME280;66234;47.642;19.144;2023-05-21T02:39:02;100435.53;;;14.27;82.61
77227;BME280;66234;47.642;19.144;2023-05-21T02:42:05;100442.75;;;14.26;81.97
77227;BME280;66234;47.642;19.144;2023-05-21T02:45:10;100440.59;;;14.35;81.35
77227;BME280;66234;47.642;19.144;2023-05-21T02:48:16;100446.34;;;14.38;81.30
77227;BME280;66234;47.642;19.144;2023-05-21T02:51:18;100451.13;;;14.36;81.79
77227;BME280;66234;47.642;19.144;2023-05-21T02:54:23;100450.19;;;14.31;82.06
77227;BME280;66234;47.642;19.144;2023-05-21T02:57:26;100445.38;;;14.33;81.86
77227;BME280;66234;47.642;19.144;2023-05-21T03:00:28;100449.41;;;14.24;82.70
77227;BME280;66234;47.642;19.144;2023-05-21T03:03:31;100444.91;;;14.18;83.26
77227;BME280;66234;47.642;19.144;2023-05-21T03:06:34;100447.44;;;14.13;83.06
77227;BME280;66234;47.642;19.144;2023-05-21T03:09:37;100439.59;;;14.11;82.74
77227;BME280;66234;47.642;19.144;2023-05-21T03:12:39;100445.16;;;14.16;82.05
77227;BME280;66234;47.642;19.144;2023-05-21T03:15:42;100446.94;;;14.22;81.83
77227;BME280;66234;47.642;19.144;2023-05-21T03:18:45;100444.19;;;14.29;81.44
77227;BME280;66234;47.642;19.144;2023-05-21T03:21:48;100451.34;;;14.35;80.70
77227;BME280;66234;47.642;19.144;2023-05-21T03:24:51;100443.28;;;14.35;80.43
77227;BME280;66234;47.642;19.144;2023-05-21T03:27:54;100437.06;;;14.34;80.40
77227;BME280;66234;47.642;19.144;2023-05-21T03:31:18;100449.63;;;14.40;80.36
77227;BME280;66234;47.642;19.144;2023-05-21T03:34:42;100445.91;;;14.41;81.25
77227;BME280;66234;47.642;19.144;2023-05-21T03:37:45;100449.13;;;14.32;81.51
77227;BME280;66234;47.642;19.144;2023-05-21T03:40:48;100462.94;;;14.35;81.69
77227;BME280;66234;47.642;19.144;2023-05-21T03:43:51;100455.56;;;14.31;81.10
77227;BME280;66234;47.642;19.144;2023-05-21T03:46:57;100453.22;;;14.34;81.66
77227;BME280;66234;47.642;19.144;2023-05-21T03:50:03;100455.00;;;14.40;81.49
77227;BME280;66234;47.642;19.144;2023-05-21T03:53:07;100451.31;;;14.53;80.29
77227;BME280;66234;47.642;19.144;2023-05-21T03:56:12;100458.94;;;14.56;79.98
77227;BME280;66234;47.642;19.144;2023-05-21T03:59:15;100456.22;;;14.56;80.25
77227;BME280;66234;47.642;19.144;2023-05-21T04:02:20;100452.78;;;14.67;79.95
77227;BME280;66234;47.642;19.144;2023-05-21T04:05:23;100454.97;;;14.88;79.24
77227;BME280;66234;47.642;19.144;2023-05-21T04:08:26;100458.75;;;14.99;79.10
77227;BME280;66234;47.642;19.144;2023-05-21T04:11:29;100455.84;;;15.23;79.34
77227;BME280;66234;47.642;19.144;2023-05-21T04:14:32;100455.56;;;15.54;77.95
77227;BME280;66234;47.642;19.144;2023-05-21T04:17:35;100458.47;;;15.87;77.74
77227;BME280;66234;47.642;19.144;2023-05-21T04:20:39;100457.03;;;16.08;77.05
77227;BME280;66234;47.642;19.144;2023-05-21T04:23:42;100465.41;;;16.34;75.33
77227;BME280;66234;47.642;19.144;2023-05-21T04:26:55;100462.56;;;16.53;73.26
77227;BME280;66234;47.642;19.144;2023-05-21T04:29:58;100456.19;;;16.87;72.06
77227;BME280;66234;47.642;19.144;2023-05-21T04:33:02;100457.22;;;17.14;70.41
77227;BME280;66234;47.642;19.144;2023-05-21T04:36:04;100451.41;;;17.38;69.21
77227;BME280;66234;47.642;19.144;2023-05-21T04:39:07;100449.69;;;17.65;66.64
77227;BME280;66234;47.642;19.144;2023-05-21T04:42:10;100450.13;;;17.95;64.61
77227;BME280;66234;47.642;19.144;2023-05-21T04:45:13;100454.28;;;18.25;63.72
77227;BME280;66234;47.642;19.144;2023-05-21T04:48:19;100453.56;;;18.51;63.00
77227;BME280;66234;47.642;19.144;2023-05-21T04:51:22;100466.22;;;18.67;62.91
77227;BME280;66234;47.642;19.144;2023-05-21T04:54:28;100465.25;;;18.78;61.86
77227;BME280;66234;47.642;19.144;2023-05-21T04:57:30;100464.69;;;18.76;61.98
77227;BME280;66234;47.642;19.144;2023-05-21T05:00:34;100465.94;;;18.68;61.18
77227;BME280;66234;47.642;19.144;2023-05-21T05:03:39;100475.38;;;18.66;61.28
77227;BME280;66234;47.642;19.144;2023-05-21T05:06:42;100476.16;;;18.61;61.45
77227;BME280;66234;47.642;19.144;2023-05-21T05:09:45;100460.59;;;18.73;61.47
77227;BME280;66234;47.642;19.144;2023-05-21T05:12:48;100463.50;;;18.93;60.19
77227;BME280;66234;47.642;19.144;2023-05-21T05:15:52;100453.97;;;18.91;63.05
77227;BME280;66234;47.642;19.144;2023-05-21T05:18:55;100455.00;;;18.85;65.27
77227;BME280;66234;47.642;19.144;2023-05-21T05:21:58;100455.72;;;18.75;66.02
77227;BME280;66234;47.642;19.144;2023-05-21T05:25:01;100450.31;;;18.75;66.20
77227;BME280;66234;47.642;19.144;2023-05-21T05:28:03;100453.53;;;18.72;66.22
77227;BME280;66234;47.642;19.144;2023-05-21T05:31:08;100448.16;;;18.77;67.03
77227;BME280;66234;47.642;19.144;2023-05-21T05:34:10;100449.38;;;18.91;65.05
77227;BME280;66234;47.642;19.144;2023-05-21T05:37:13;100439.03;;;19.15;60.63
77227;BME280;66234;47.642;19.144;2023-05-21T05:40:16;100436.28;;;19.36;59.68
77227;BME280;66234;47.642;19.144;2023-05-21T05:43:19;100433.41;;;19.53;58.36
77227;BME280;66234;47.642;19.144;2023-05-21T05:46:21;100430.25;;;19.66;57.97
77227;BME280;66234;47.642;19.144;2023-05-21T05:49:25;100429.44;;;19.71;57.82
77227;BME280;66234;47.642;19.144;2023-05-21T05:52:28;100420.56;;;19.85;57.02
77227;BME280;66234;47.642;19.144;2023-05-21T05:55:31;100423.34;;;19.95;56.30
77227;BME280;66234;47.642;19.144;2023-05-21T05:58:34;100420.41;;;20.02;56.02
77227;BME280;66234;47.642;19.144;2023-05-21T06:01:48;100425.81;;;20.07;55.54
77227;BME280;66234;47.642;19.144;2023-05-21T06:04:51;100420.38;;;19.97;56.58
77227;BME280;66234;47.642;19.144;2023-05-21T06:07:53;100414.44;;;20.10;56.62
77227;BME280;66234;47.642;19.144;2023-05-21T06:10:56;100423.75;;;20.19;55.53
77227;BME280;66234;47.642;19.144;2023-05-21T06:13:59;100417.56;;;20.33;55.59
77227;BME280;66234;47.642;19.144;2023-05-21T06:17:04;100416.53;;;20.49;54.53
77227;BME280;66234;47.642;19.144;2023-05-21T06:20:08;100412.69;;;20.35;55.41
77227;BME280;66234;47.642;19.144;2023-05-21T06:23:11;100419.50;;;20.53;55.39
77227;BME280;66234;47.642;19.144;2023-05-21T06:26:14;100428.22;;;20.60;55.96
77227;BME280;66234;47.642;19.144;2023-05-21T06:29:17;100414.66;;;20.65;55.17
77227;BME280;66234;47.642;19.144;2023-05-21T06:32:21;100416.31;;;20.71;54.74
77227;BME280;66234;47.642;19.144;2023-05-21T06:35:24;100420.13;;;20.80;53.71
77227;BME280;66234;47.642;19.144;2023-05-21T06:38:27;100413.59;;;20.81;55.21
77227;BME280;66234;47.642;19.144;2023-05-21T06:41:30;100413.88;;;20.89;54.76
77227;BME280;66234;47.642;19.144;2023-05-21T06:44:37;100408.47;;;20.99;53.11
77227;BME280;66234;47.642;19.144;2023-05-21T06:48:08;100402.78;;;21.06;53.34
77227;BME280;66234;47.642;19.144;2023-05-21T06:51:12;100405.50;;;21.06;54.20
77227;BME280;66234;47.642;19.144;2023-05-21T06:54:14;100399.50;;;21.09;53.70
77227;BME280;66234;47.642;19.144;2023-05-21T06:57:17;100395.16;;;21.23;53.63
77227;BME280;66234;47.642;19.144;2023-05-21T07:00:20;100396.22;;;21.32;53.38
77227;BME280;66234;47.642;19.144;2023-05-21T07:03:23;100389.72;;;21.23;54.48
77227;BME280;66234;47.642;19.144;2023-05-21T07:06:26;100383.44;;;21.28;54.49
77227;BME280;66234;47.642;19.144;2023-05-21T07:09:28;100391.06;;;21.36;54.06
77227;BME280;66234;47.642;19.144;2023-05-21T07:12:31;100390.25;;;21.40;53.60
77227;BME280;66234;47.642;19.144;2023-05-21T07:15:34;100385.06;;;21.49;53.15
77227;BME280;66234;47.642;19.144;2023-05-21T07:18:37;100383.09;;;21.64;53.32
77227;BME280;66234;47.642;19.144;2023-05-21T07:21:40;100378.75;;;21.68;53.58
77227;BME280;66234;47.642;19.144;2023-05-21T07:24:43;100383.34;;;21.93;52.64
77227;BME280;66234;47.642;19.144;2023-05-21T07:27:46;100389.06;;;21.91;52.30
77227;BME280;66234;47.642;19.144;2023-05-21T07:30:49;100380.91;;;21.86;51.64
77227;BME280;66234;47.642;19.144;2023-05-21T07:33:56;100380.59;;;22.03;52.01
77227;BME280;66234;47.642;19.144;2023-05-21T07:37:03;100375.94;;;22.03;52.36
77227;BME280;66234;47.642;19.144;2023-05-21T07:40:06;100381.06;;;22.15;52.64
77227;BME280;66234;47.642;19.144;2023-05-21T07:43:11;100385.13;;;22.17;52.67
77227;BME280;66234;47.642;19.144;2023-05-21T07:46:15;100388.34;;;22.29;51.32
77227;BME280;66234;47.642;19.144;2023-05-21T07:49:19;100378.72;;;22.47;51.86
77227;BME280;66234;47.642;19.144;2023-05-21T07:52:22;100377.91;;;22.51;51.91
77227;BME280;66234;47.642;19.144;2023-05-21T07:55:25;100381.44;;;22.52;52.29
77227;BME280;66234;47.642;19.144;2023-05-21T07:58:28;100386.22;;;22.70;51.62
77227;BME280;66234;47.642;19.144;2023-05-21T08:01:33;100383.16;;;22.82;50.22
77227;BME280;66234;47.642;19.144;2023-05-21T08:04:35;100385.81;;;22.87;48.99
77227;BME280;66234;47.642;19.144;2023-05-21T08:07:43;100388.09;;;22.74;50.66
77227;BME280;66234;47.642;19.144;2023-05-21T08:10:46;100381.19;;;22.87;49.83
77227;BME280;66234;47.642;19.144;2023-05-21T08:13:49;100388.50;;;22.92;49.82
77227;BME280;66234;47.642;19.144;2023-05-21T08:16:52;100387.16;;;22.94;49.77
77227;BME280;66234;47.642;19.144;2023-05-21T08:19:55;100391.19;;;23.02;50.36
77227;BME280;66234;47.642;19.144;2023-05-21T08:22:58;100387.16;;;22.94;50.81
77227;BME280;66234;47.642;19.144;2023-05-21T08:26:12;100374.91;;;22.87;51.63
77227;BME280;66234;47.642;19.144;2023-05-21T08:29:17;100382.94;;;23.07;51.95
77227;BME280;66234;47.642;19.144;2023-05-21T08:32:20;100381.19;;;23.21;50.88
77227;BME280;66234;47.642;19.144;2023-05-21T08:35:23;100390.44;;;23.30;51.01
77227;BME280;66234;47.642;19.144;2023-05-21T08:38:44;100386.72;;;23.44;50.16
77227;BME280;66234;47.642;19.144;2023-05-21T08:41:56;100378.28;;;23.41;48.09
77227;BME280;66234;47.642;19.144;2023-05-21T08:45:04;100387.63;;;23.35;48.54
77227;BME280;66234;47.642;19.144;2023-05-21T08:48:10;100391.84;;;23.51;48.30
77227;BME280;66234;47.642;19.144;2023-05-21T08:51:15;100398.34;;;23.55;47.49
77227;BME280;66234;47.642;19.144;2023-05-21T08:54:22;100390.22;;;23.73;48.03
77227;BME280;66234;47.642;19.144;2023-05-21T08:57:25;100394.81;;;23.78;50.34
77227;BME280;66234;47.642;19.144;2023-05-21T09:00:29;100392.38;;;23.76;49.48
77227;BME280;66234;47.642;19.144;2023-05-21T09:03:34;100400.22;;;23.83;49.66
77227;BME280;66234;47.642;19.144;2023-05-21T09:06:42;100398.78;;;23.90;48.64
77227;BME280;66234;47.642;19.144;2023-05-21T09:10:07;100377.75;;;23.91;47.63
77227;BME280;66234;47.642;19.144;2023-05-21T09:13:13;100380.97;;;23.98;48.75
77227;BME280;66234;47.642;19.144;2023-05-21T09:16:19;100385.66;;;24.16;46.95
77227;BME280;66234;47.642;19.144;2023-05-21T09:19:21;100381.16;;;24.25;48.18
77227;BME280;66234;47.642;19.144;2023-05-21T09:22:25;100378.44;;;24.44;49.59
77227;BME280;66234;47.642;19.144;2023-05-21T09:25:27;100378.97;;;24.46;46.65
77227;BME280;66234;47.642;19.144;2023-05-21T09:28:34;100386.34;;;24.45;47.50
77227;BME280;66234;47.642;19.144;2023-05-21T09:31:42;100388.88;;;24.60;47.23
77227;BME280;66234;47.642;19.144;2023-05-21T09:34:47;100388.44;;;24.53;46.39
77227;BME280;66234;47.642;19.144;2023-05-21T09:37:51;100386.13;;;24.60;44.15
77227;BME280;66234;47.642;19.144;2023-05-21T09:40:54;100374.41;;;24.60;46.01
77227;BME280;66234;47.642;19.144;2023-05-21T09:44:00;100379.06;;;24.78;47.16
77227;BME280;66234;47.642;19.144;2023-05-21T09:47:04;100372.41;;;24.84;46.10
77227;BME280;66234;47.642;19.144;2023-05-21T09:50:26;100371.75;;;24.92;44.70
77227;BME280;66234;47.642;19.144;2023-05-21T09:53:32;100369.41;;;24.99;44.19
77227;BME280;66234;47.642;19.144;2023-05-21T09:56:35;100371.25;;;25.03;45.74
77227;BME280;66234;47.642;19.144;2023-05-21T09:59:38;100376.31;;;24.96;43.94
77227;BME280;66234;47.642;19.144;2023-05-21T10:02:43;100373.75;;;25.18;43.80
77227;BME280;66234;47.642;19.144;2023-05-21T10:05:46;100367.06;;;25.24;43.18
77227;BME280;66234;47.642;19.144;2023-05-21T10:08:55;100369.94;;;25.33;45.82
77227;BME280;66234;47.642;19.144;2023-05-21T10:12:00;100367.66;;;25.40;44.93
77227;BME280;66234;47.642;19.144;2023-05-21T10:15:07;100358.00;;;25.42;42.70
77227;BME280;66234;47.642;19.144;2023-05-21T10:18:12;100359.25;;;25.63;44.91
77227;BME280;66234;47.642;19.144;2023-05-21T10:21:15;100353.66;;;25.55;39.99
77227;BME280;66234;47.642;19.144;2023-05-21T10:24:18;100351.03;;;25.63;42.96
77227;BME280;66234;47.642;19.144;2023-05-21T10:27:21;100345.97;;;25.70;41.25
77227;BME280;66234;47.642;19.144;2023-05-21T10:30:24;100339.97;;;25.68;41.43
77227;BME280;66234;47.642;19.144;2023-05-21T10:33:28;100344.03;;;25.84;42.50
77227;BME280;66234;47.642;19.144;2023-05-21T10:36:31;100332.06;;;25.94;41.25
77227;BME280;66234;47.642;19.144;2023-05-21T10:39:35;100336.31;;;25.73;42.08
77227;BME280;66234;47.642;19.144;2023-05-21T10:49:49;100338.03;;;26.23;39.63
77227;BME280;66234;47.642;19.144;2023-05-21T10:56:21;100326.75;;;26.25;37.78
77227;BME280;66234;47.642;19.144;2023-05-21T10:59:42;100321.78;;;26.13;40.29
77227;BME280;66234;47.642;19.144;2023-05-21T11:02:46;100318.66;;;26.20;40.24
77227;BME280;66234;47.642;19.144;2023-05-21T11:05:54;100323.97;;;26.38;37.46
77227;BME280;66234;47.642;19.144;2023-05-21T11:09:22;100328.06;;;26.27;39.46
77227;BME280;66234;47.642;19.144;2023-05-21T11:12:24;100316.81;;;26.15;40.66
77227;BME280;66234;47.642;19.144;2023-05-21T11:15:27;100316.41;;;26.22;39.44
77227;BME280;66234;47.642;19.144;2023-05-21T11:21:41;100314.38;;;26.85;39.39
77227;BME280;66234;47.642;19.144;2023-05-21T11:24:44;100324.22;;;27.08;38.66
77227;BME280;66234;47.642;19.144;2023-05-21T11:27:47;100324.41;;;27.42;37.69
77227;BME280;66234;47.642;19.144;2023-05-21T11:34:24;100313.78;;;27.49;36.07
77227;BME280;66234;47.642;19.144;2023-05-21T11:37:30;100314.66;;;27.67;36.80
77227;BME280;66234;47.642;19.144;2023-05-21T11:40:34;100314.94;;;27.87;37.27
77227;BME280;66234;47.642;19.144;2023-05-21T11:43:42;100311.84;;;27.97;37.96
77227;BME280;66234;47.642;19.144;2023-05-21T11:46:45;100322.78;;;28.53;37.60
77227;BME280;66234;47.642;19.144;2023-05-21T11:49:47;100314.81;;;29.03;34.51
77227;BME280;66234;47.642;19.144;2023-05-21T11:52:51;100301.53;;;29.14;35.71
77227;BME280;66234;47.642;19.144;2023-05-21T11:55:54;100306.31;;;29.42;35.95
77227;BME280;66234;47.642;19.144;2023-05-21T11:59:01;100297.47;;;29.95;33.58
77227;BME280;66234;47.642;19.144;2023-05-21T12:02:04;100297.34;;;28.14;37.67
77227;BME280;66234;47.642;19.144;2023-05-21T12:05:07;100296.06;;;27.55;36.84
77227;BME280;66234;47.642;19.144;2023-05-21T12:08:11;100287.28;;;29.12;34.64
77227;BME280;66234;47.642;19.144;2023-05-21T12:11:14;100284.03;;;30.14;35.92
77227;BME280;66234;47.642;19.144;2023-05-21T12:14:16;100276.13;;;31.19;31.45
77227;BME280;66234;47.642;19.144;2023-05-21T12:17:23;100274.41;;;31.62;32.96
77227;BME280;66234;47.642;19.144;2023-05-21T12:20:26;100266.16;;;31.86;30.97
77227;BME280;66234;47.642;19.144;2023-05-21T12:23:30;100267.19;;;31.94;30.03
77227;BME280;66234;47.642;19.144;2023-05-21T12:26:33;100272.75;;;32.22;30.81
77227;BME280;66234;47.642;19.144;2023-05-21T12:29:41;100274.47;;;32.26;29.92
77227;BME280;66234;47.642;19.144;2023-05-21T12:32:44;100267.25;;;32.77;27.92
77227;BME280;66234;47.642;19.144;2023-05-21T12:35:48;100266.53;;;32.25;27.49
77227;BME280;66234;47.642;19.144;2023-05-21T12:38:52;100265.84;;;33.26;25.29
77227;BME280;66234;47.642;19.144;2023-05-21T12:41:54;100270.72;;;33.45;26.32
77227;BME280;66234;47.642;19.144;2023-05-21T12:44:57;100257.69;;;33.64;24.84
77227;BME280;66234;47.642;19.144;2023-05-21T12:48:00;100254.31;;;34.05;25.19
77227;BME280;66234;47.642;19.144;2023-05-21T12:51:05;100260.56;;;32.78;25.82
77227;BME280;66234;47.642;19.144;2023-05-21T12:54:11;100249.13;;;33.69;24.38
77227;BME280;66234;47.642;19.144;2023-05-21T13:00:22;100249.66;;;33.59;25.75
77227;BME280;66234;47.642;19.144;2023-05-21T13:03:25;100234.28;;;33.96;23.76
77227;BME280;66234;47.642;19.144;2023-05-21T13:06:28;100238.53;;;34.85;22.80
77227;BME280;66234;47.642;19.144;2023-05-21T13:09:30;100234.56;;;35.06;23.77
77227;BME280;66234;47.642;19.144;2023-05-21T13:12:33;100236.66;;;34.70;24.61
77227;BME280;66234;47.642;19.144;2023-05-21T13:15:36;100224.38;;;34.71;24.52
77227;BME280;66234;47.642;19.144;2023-05-21T13:18:38;100221.59;;;33.80;26.72
77227;BME280;66234;47.642;19.144;2023-05-21T13:21:41;100218.56;;;34.99;22.83
77227;BME280;66234;47.642;19.144;2023-05-21T13:24:44;100204.72;;;35.03;23.09
77227;BME280;66234;47.642;19.144;2023-05-21T13:27:48;100214.44;;;33.94;25.83
77227;BME280;66234;47.642;19.144;2023-05-21T13:30:51;100210.66;;;35.24;22.45
77227;BME280;66234;47.642;19.144;2023-05-21T13:33:56;100216.41;;;35.60;22.05
77227;BME280;66234;47.642;19.144;2023-05-21T13:36:59;100203.09;;;35.47;21.96
77227;BME280;66234;47.642;19.144;2023-05-21T13:40:03;100204.78;;;34.64;23.40
77227;BME280;66234;47.642;19.144;2023-05-21T13:43:07;100206.56;;;35.66;20.99
77227;BME280;66234;47.642;19.144;2023-05-21T13:46:10;100197.84;;;36.27;21.27
77227;BME280;66234;47.642;19.144;2023-05-21T13:49:13;100199.78;;;35.64;21.29
77227;BME280;66234;47.642;19.144;2023-05-21T13:52:16;100201.50;;;35.75;20.96
77227;BME280;66234;47.642;19.144;2023-05-21T13:55:18;100203.13;;;34.82;23.26
77227;BME280;66234;47.642;19.144;2023-05-21T13:58:21;100197.38;;;34.91;21.54
77227;BME280;66234;47.642;19.144;2023-05-21T14:01:23;100186.31;;;33.61;23.99
77227;BME280;66234;47.642;19.144;2023-05-21T14:04:26;100193.69;;;35.32;23.11
77227;BME280;66234;47.642;19.144;2023-05-21T14:07:29;100192.97;;;36.50;20.25
77227;BME280;66234;47.642;19.144;2023-05-21T14:10:34;100189.91;;;36.59;20.59
77227;BME280;66234;47.642;19.144;2023-05-21T14:13:37;100190.75;;;36.29;21.74
77227;BME280;66234;47.642;19.144;2023-05-21T14:16:40;100187.84;;;35.15;24.60
77227;BME280;66234;47.642;19.144;2023-05-21T14:19:44;100188.22;;;35.13;23.24
77227;BME280;66234;47.642;19.144;2023-05-21T14:22:46;100197.19;;;36.04;22.29
77227;BME280;66234;47.642;19.144;2023-05-21T14:25:49;100193.75;;;36.47;20.14
77227;BME280;66234;47.642;19.144;2023-05-21T14:28:52;100186.97;;;36.45;21.03
77227;BME280;66234;47.642;19.144;2023-05-21T14:31:55;100191.53;;;36.63;19.75
77227;BME280;66234;47.642;19.144;2023-05-21T14:34:59;100185.78;;;36.82;20.22
77227;BME280;66234;47.642;19.144;2023-05-21T14:38:02;100183.34;;;36.77;20.26
77227;BME280;66234;47.642;19.144;2023-05-21T14:41:05;100170.31;;;36.92;19.94
77227;BME280;66234;47.642;19.144;2023-05-21T14:44:09;100168.00;;;36.97;19.63
77227;BME280;66234;47.642;19.144;2023-05-21T14:47:11;100163.59;;;37.43;19.51
77227;BME280;66234;47.642;19.144;2023-05-21T14:50:14;100160.38;;;38.03;18.56
77227;BME280;66234;47.642;19.144;2023-05-21T14:53:17;100164.31;;;37.33;20.39
77227;BME280;66234;47.642;19.144;2023-05-21T14:56:21;100171.19;;;36.59;20.56
77227;BME280;66234;47.642;19.144;2023-05-21T14:59:26;100163.41;;;37.73;18.66
77227;BME280;66234;47.642;19.144;2023-05-21T15:02:29;100168.22;;;36.42;20.74
77227;BME280;66234;47.642;19.144;2023-05-21T15:05:32;100161.19;;;36.91;19.31
77227;BME280;66234;47.642;19.144;2023-05-21T15:08:35;100161.66;;;37.00;20.09
77227;BME280;66234;47.642;19.144;2023-05-21T15:11:38;100173.72;;;36.71;21.65
77227;BME280;66234;47.642;19.144;2023-05-21T15:14:41;100162.00;;;37.42;19.71
77227;BME280;66234;47.642;19.144;2023-05-21T15:17:44;100157.53;;;37.99;18.78
77227;BME280;66234;47.642;19.144;2023-05-21T15:20:46;100151.03;;;37.74;18.97
77227;BME280;66234;47.642;19.144;2023-05-21T15:23:49;100154.84;;;36.98;19.51
77227;BME280;66234;47.642;19.144;2023-05-21T15:26:52;100162.44;;;36.61;19.54
77227;BME280;66234;47.642;19.144;2023-05-21T15:29:54;100158.53;;;36.69;19.55
77227;BME280;66234;47.642;19.144;2023-05-21T15:32:58;100155.63;;;36.91;20.19
77227;BME280;66234;47.642;19.144;2023-05-21T15:36:01;100154.88;;;36.24;21.15
77227;BME280;66234;47.642;19.144;2023-05-21T15:39:03;100140.28;;;36.75;21.03
77227;BME280;66234;47.642;19.144;2023-05-21T15:42:07;100140.28;;;36.71;21.04
77227;BME280;66234;47.642;19.144;2023-05-21T15:45:11;100148.56;;;37.08;19.52
77227;BME280;66234;47.642;19.144;2023-05-21T15:48:14;100144.81;;;37.37;19.90
77227;BME280;66234;47.642;19.144;2023-05-21T15:51:23;100147.19;;;37.31;18.63
77227;BME280;66234;47.642;19.144;2023-05-21T15:54:26;100149.59;;;37.36;18.67
77227;BME280;66234;47.642;19.144;2023-05-21T15:57:29;100148.19;;;37.09;19.25
77227;BME280;66234;47.642;19.144;2023-05-21T16:00:32;100143.63;;;37.34;18.34
77227;BME280;66234;47.642;19.144;2023-05-21T16:03:35;100154.47;;;36.59;20.88
77227;BME280;66234;47.642;19.144;2023-05-21T16:06:38;100154.22;;;36.71;20.89
77227;BME280;66234;47.642;19.144;2023-05-21T16:09:41;100148.81;;;37.39;18.80
77227;BME280;66234;47.642;19.144;2023-05-21T16:12:43;100151.94;;;36.80;19.78